Kitchings Mill, South Carolina
Current Conditions -  °F | °C
As of 12:55 AM on Thursday 23 Oct 2014 (Local Time) from KAIK Reporting Station
Clear Clear  
Wind Chill: 50°   Ceiling: Unl
Heat Index: 50°   Visibility: 10mi
Dew Point: 43°   Wind: 7mph
Humidity: 76%   Direction: 30°NNE
Pressure: 30.13"   Gusts: NA
Location:  33.5901°N, 81.3327°W
Report Text: KAIK 230455Z AUTO 03006KT 10SM CLR 10/06 A3013 RMK AO2 LTG DSNT SE PNO
Loading
Personal Weather Stations






























Interactive Weather Map
Tropical Storm Tracking
New forecast layout! Learn more

10-Day Weather Forecast

Advertisements
Track Severe Weather on mobile